createdAt,value
2019-06-11T09:18:57.786Z,1002.7
2019-06-11T09:20:03.944Z,1002.8
2019-06-11T09:21:06.167Z,1002.8
2019-06-11T09:22:11.099Z,1002.7
2019-06-11T09:23:13.740Z,1002.8
2019-06-11T09:24:15.983Z,1002.7
2019-06-11T09:25:20.604Z,1002.7
2019-06-11T09:26:23.081Z,1002.8
2019-06-11T09:27:25.639Z,1002.8
2019-06-11T09:28:30.677Z,1002.9
2019-06-11T09:29:33.324Z,1002.8
2019-06-11T09:30:35.597Z,1002.9
2019-06-11T09:31:37.797Z,1002.9
2019-06-11T09:32:46.873Z,1002.8
2019-06-11T09:33:54.881Z,1002.8
2019-06-11T09:34:57.605Z,1002.8
2019-06-11T09:36:03.541Z,1002.8
2019-06-11T09:37:06.531Z,1002.8
2019-06-11T09:38:10.998Z,1002.9
2019-06-11T09:39:13.602Z,1002.9
2019-06-11T09:40:16.431Z,1003
2019-06-11T09:41:21.135Z,1003
2019-06-11T09:42:23.668Z,1003
2019-06-11T09:43:26.243Z,1003
2019-06-11T09:44:32.336Z,1003
2019-06-11T09:45:36.386Z,1003
2019-06-11T09:46:48.150Z,1003
2019-06-11T09:48:07.303Z,1003
2019-06-11T09:49:15.203Z,1003
2019-06-11T09:50:18.255Z,1003
2019-06-11T09:51:24.283Z,1002.9
2019-06-11T09:52:26.527Z,1003
2019-06-11T09:53:31.366Z,1003
2019-06-11T09:54:33.591Z,1003
2019-06-11T09:55:36.642Z,1003
2019-06-11T09:56:47.301Z,1003
2019-06-11T09:58:04.344Z,1002.9
2019-06-11T09:59:07.271Z,1002.9
2019-06-11T10:00:12.474Z,1002.9
2019-06-11T10:01:15.052Z,1002.9
2019-06-11T10:02:17.334Z,1002.9
2019-06-11T10:03:22.217Z,1003
2019-06-11T10:04:24.426Z,1003
2019-06-11T10:05:27.368Z,1003
2019-06-11T10:06:34.160Z,1003
2019-06-11T10:07:36.916Z,1003
2019-06-11T10:08:44.209Z,1003.2
2019-06-11T10:09:54.078Z,1003.2
2019-06-11T10:11:41.341Z,1003.2
2019-06-11T10:13:08.228Z,1003.2
2019-06-11T10:14:13.495Z,1003.2
2019-06-11T10:15:16.029Z,1003.2
2019-06-11T10:16:22.464Z,1003.2
2019-06-11T10:17:25.248Z,1003.2
2019-06-11T10:18:27.374Z,1003.2
2019-06-11T10:19:32.695Z,1003.3
2019-06-11T10:20:36.952Z,1003.3
2019-06-11T10:21:41.767Z,1003.4
2019-06-11T10:22:47.253Z,1003.3
2019-06-11T10:24:01.151Z,1003.4
2019-06-11T10:25:03.699Z,1003.4
2019-06-11T10:26:06.252Z,1003.3
2019-06-11T10:27:10.712Z,1003.3
2019-06-11T10:28:25.403Z,1003.3
2019-06-11T10:29:30.690Z,1003.4
2019-06-11T10:30:33.207Z,1003.4
2019-06-11T10:31:35.741Z,1003.4
2019-06-11T10:32:41.506Z,1003.4
2019-06-11T10:33:47.741Z,1003.4
2019-06-11T10:35:02.176Z,1003.3
2019-06-11T10:36:06.745Z,1003.3
2019-06-11T10:37:13.212Z,1003.3
2019-06-11T10:38:16.357Z,1003.3
2019-06-11T10:39:25.826Z,1003.3
2019-06-11T10:40:31.041Z,1003.3
2019-06-11T10:41:57.680Z,1003.2
2019-06-11T10:43:11.936Z,1003.2
2019-06-11T10:44:24.608Z,1003.2
2019-06-11T10:45:31.053Z,1003.2
2019-06-11T10:46:35.628Z,1003.2
2019-06-11T10:47:40.592Z,1003.3
2019-06-11T10:48:46.733Z,1003.3
2019-06-11T10:50:04.259Z,1003.3
2019-06-11T10:51:14.179Z,1003.3
2019-06-11T10:52:19.917Z,1003.3
2019-06-11T10:53:22.881Z,1003.3
2019-06-11T10:54:27.767Z,1003.3
2019-06-11T10:55:41.447Z,1003.3
2019-06-11T10:56:53.650Z,1003.4
2019-06-11T10:58:06.275Z,1003.3
2019-06-11T10:59:15.165Z,1003.3
2019-06-11T11:00:17.705Z,1003.2
2019-06-11T11:01:33.733Z,1003.2
2019-06-11T11:02:41.220Z,1003.2
2019-06-11T11:04:03.833Z,1003.3
2019-06-11T11:05:12.825Z,1003.2
2019-06-11T11:06:16.193Z,1003.2
2019-06-11T11:07:30.494Z,1003.2
2019-06-11T11:08:45.602Z,1003.3
2019-06-11T11:10:05.956Z,1003.3
2019-06-11T11:11:13.822Z,1003.3
2019-06-11T11:12:28.921Z,1003.2
2019-06-11T11:13:33.373Z,1003.3
2019-06-11T11:14:37.698Z,1003.4
2019-06-11T11:15:56.285Z,1003.4
2019-06-11T11:17:05.830Z,1003.4
2019-06-11T11:18:13.111Z,1003.4
2019-06-11T11:19:16.395Z,1003.4
2019-06-11T11:20:25.961Z,1003.5
2019-06-11T11:21:32.691Z,1003.5
2019-06-11T11:22:37.963Z,1003.5
2019-06-11T11:24:01.538Z,1003.5
2019-06-11T11:25:12.973Z,1003.5
2019-06-11T11:26:21.522Z,1003.6
2019-06-11T11:27:24.743Z,1003.5
2019-06-11T11:28:33.076Z,1003.5
2019-06-11T11:29:36.337Z,1003.5
2019-06-11T11:30:58.667Z,1003.4
2019-06-11T11:32:13.659Z,1003.5
2019-06-11T11:33:24.669Z,1003.5
2019-06-11T11:34:36.656Z,1003.5
2019-06-11T11:35:41.750Z,1003.6
2019-06-11T11:36:59.625Z,1003.6
2019-06-11T11:38:18.113Z,1003.6
2019-06-11T11:39:32.939Z,1003.6
2019-06-11T11:40:37.296Z,1003.6
2019-06-11T11:42:06.797Z,1003.6
2019-06-11T11:43:44.109Z,1003.7
2019-06-11T11:44:47.112Z,1003.7
2019-06-11T11:46:02.873Z,1003.6
2019-06-11T11:47:12.131Z,1003.7
2019-06-11T11:48:14.334Z,1003.7
2019-06-11T11:49:16.517Z,1003.6
2019-06-11T11:50:25.344Z,1003.6
2019-06-11T11:51:27.539Z,1003.7
2019-06-11T11:52:32.240Z,1003.7
2019-06-11T11:53:34.798Z,1003.7
2019-06-11T11:54:37.550Z,1003.7
2019-06-11T11:55:42.921Z,1003.7
2019-06-11T11:56:45.480Z,1003.7
2019-06-11T11:58:01.638Z,1003.7
2019-06-11T11:59:03.903Z,1003.7
2019-06-11T12:00:18.563Z,1003.7
2019-06-11T12:01:24.261Z,1003.8
2019-06-11T12:02:26.436Z,1003.8
2019-06-11T12:03:28.731Z,1003.8
2019-06-11T12:04:31.691Z,1003.8
2019-06-11T12:05:34.190Z,1003.8
2019-06-11T12:06:36.484Z,1003.8
2019-06-11T12:07:41.151Z,1003.8
2019-06-11T12:08:43.545Z,1003.8
2019-06-11T12:09:45.777Z,1003.8
2019-06-11T12:10:58.172Z,1003.8
2019-06-11T12:12:05.061Z,1003.8
2019-06-11T12:13:07.652Z,1003.8
2019-06-11T12:14:11.854Z,1003.9
2019-06-11T12:15:14.066Z,1003.9
2019-06-11T12:16:37.418Z,1003.8
2019-06-11T12:17:45.222Z,1004
2019-06-11T12:19:13.216Z,1003.8
2019-06-11T12:20:24.609Z,1003.8
2019-06-11T12:21:26.864Z,1003.9
2019-06-11T12:22:31.617Z,1003.9
2019-06-11T12:23:33.896Z,1003.8
2019-06-11T12:24:36.104Z,1003.9
2019-06-11T12:25:41.608Z,1003.8
2019-06-11T12:26:44.217Z,1003.8
2019-06-11T12:27:46.434Z,1003.9
2019-06-11T12:29:03.019Z,1003.8
2019-06-11T12:30:14.832Z,1003.9
2019-06-11T12:31:17.535Z,1003.8
2019-06-11T12:32:22.227Z,1003.9
2019-06-11T12:33:24.483Z,1003.8
2019-06-11T12:34:26.706Z,1003.8
2019-06-11T12:35:31.616Z,1003.8
2019-06-11T12:36:34.143Z,1003.8
2019-06-11T12:37:36.332Z,1003.8
2019-06-11T12:38:42.805Z,1003.9
2019-06-11T12:39:45.005Z,1003.9
2019-06-11T12:40:54.596Z,1003.8
2019-06-11T12:42:11.598Z,1003.8
2019-06-11T12:43:37.310Z,1003.8
2019-06-11T12:44:43.381Z,1003.9
2019-06-11T12:45:45.572Z,1003.9
2019-06-11T12:46:55.644Z,1003.9
2019-06-11T12:48:06.974Z,1003.8
2019-06-11T12:49:13.028Z,1003.8
2019-06-11T12:50:15.884Z,1003.8
2019-06-11T12:51:22.434Z,1003.8
2019-06-11T12:52:25.250Z,1003.8
2019-06-11T12:53:29.842Z,1003.8
2019-06-11T12:54:32.504Z,1003.8
2019-06-11T12:55:34.686Z,1003.8
2019-06-11T12:56:37.185Z,1003.8
2019-06-11T12:57:45.154Z,1003.8
2019-06-11T12:58:50.173Z,1003.9
2019-06-11T13:00:12.651Z,1003.9
2019-06-11T13:01:15.176Z,1003.9
2019-06-11T13:02:18.114Z,1003.9
2019-06-11T13:03:23.741Z,1003.9
2019-06-11T13:04:25.974Z,1004
2019-06-11T13:05:31.075Z,1004
2019-06-11T13:06:34.439Z,1004
2019-06-11T13:07:37.103Z,1004
2019-06-11T13:08:44.477Z,1004
2019-06-11T13:09:46.971Z,1004
2019-06-11T13:10:54.029Z,1004
2019-06-11T13:12:13.192Z,1004
2019-06-11T13:13:15.422Z,1004
2019-06-11T13:14:42.888Z,1004
2019-06-11T13:15:45.116Z,1004
2019-06-11T13:16:47.336Z,1004
2019-06-11T13:18:04.583Z,1004
2019-06-11T13:19:07.754Z,1004
2019-06-11T13:20:12.998Z,1004
2019-06-11T13:21:15.993Z,1004
2019-06-11T13:22:20.556Z,1004
2019-06-11T13:23:23.866Z,1004
2019-06-11T13:24:27.208Z,1004
2019-06-11T13:25:32.409Z,1004
2019-06-11T13:26:36.985Z,1004
2019-06-11T13:27:40.895Z,1004
2019-06-11T13:28:44.676Z,1004.1
2019-06-11T13:29:47.556Z,1004.1
2019-06-11T13:31:08.237Z,1004.1
2019-06-11T13:32:15.972Z,1004.1
2019-06-11T13:33:24.100Z,1004.1
2019-06-11T13:34:31.026Z,1004
2019-06-11T13:35:33.571Z,1004
2019-06-11T13:36:41.102Z,1004
2019-06-11T13:37:44.070Z,1003.9
2019-06-11T13:38:46.756Z,1004
2019-06-11T13:39:50.174Z,1004
2019-06-11T13:40:54.700Z,1004
2019-06-11T13:42:17.762Z,1004.1
2019-06-11T13:43:24.315Z,1004.1
2019-06-11T13:44:39.728Z,1004.1
2019-06-11T13:45:44.521Z,1004.2
2019-06-11T13:46:46.869Z,1004.1
2019-06-11T13:47:54.534Z,1004.1
2019-06-11T13:49:11.885Z,1004.1
2019-06-11T13:50:16.467Z,1004.2
2019-06-11T13:51:22.449Z,1004.1
2019-06-11T13:52:26.604Z,1004.2
2019-06-11T13:53:37.286Z,1004.2
2019-06-11T13:54:44.348Z,1004.2
2019-06-11T13:55:51.221Z,1004.2
2019-06-11T13:57:14.908Z,1004.2
2019-06-11T13:58:22.607Z,1004.2
2019-06-11T13:59:26.686Z,1004.2
2019-06-11T14:00:33.322Z,1004.2
2019-06-11T14:01:36.549Z,1004.2
2019-06-11T14:02:42.897Z,1004.2
2019-06-11T14:03:46.306Z,1004.2
2019-06-11T14:04:51.752Z,1004.2
2019-06-11T14:05:58.765Z,1004.2
2019-06-11T14:07:10.293Z,1004.3
2019-06-11T14:08:14.336Z,1004.3
2019-06-11T14:09:20.409Z,1004.3
2019-06-11T14:10:24.406Z,1004.4
2019-06-11T14:11:29.273Z,1004.3
2019-06-11T14:12:35.980Z,1004.3
2019-06-11T14:13:45.412Z,1004.3
2019-06-11T14:14:51.371Z,1004.2
2019-06-11T14:16:05.510Z,1004.2
2019-06-11T14:17:11.448Z,1004.2
2019-06-11T14:18:16.615Z,1004.2
2019-06-11T14:19:24.946Z,1004.2
2019-06-11T14:20:32.643Z,1004.2
2019-06-11T14:21:37.368Z,1004.3
2019-06-11T14:22:45.284Z,1004.3
2019-06-11T14:23:55.356Z,1004.3
2019-06-11T14:25:03.997Z,1004.3
2019-06-11T14:26:10.619Z,1004.3
2019-06-11T14:27:15.374Z,1004.3
2019-06-11T14:28:22.781Z,1004.2
2019-06-11T14:29:31.623Z,1004.3
2019-06-11T14:30:36.597Z,1004.3
2019-06-11T14:31:43.905Z,1004.3
2019-06-11T14:32:53.622Z,1004.3
2019-06-11T14:34:13.656Z,1004.3
2019-06-11T14:35:21.476Z,1004.3
2019-06-11T14:36:25.743Z,1004.3
2019-06-11T14:37:32.050Z,1004.3
2019-06-11T14:38:36.662Z,1004.3
2019-06-11T14:39:42.578Z,1004.3
2019-06-11T14:40:47.627Z,1004.3
2019-06-11T14:41:56.711Z,1004.3
2019-06-11T14:43:11.759Z,1004.3
2019-06-11T14:44:38.114Z,1004.3
2019-06-11T14:45:52.515Z,1004.3
2019-06-11T14:46:57.398Z,1004.3
2019-06-11T14:48:13.945Z,1004.3
2019-06-11T14:49:16.186Z,1004.3
2019-06-11T14:50:21.132Z,1004.3
2019-06-11T14:51:23.736Z,1004.3
2019-06-11T14:52:25.958Z,1004.3
2019-06-11T14:53:31.091Z,1004.3
2019-06-11T14:54:33.819Z,1004.3
2019-06-11T14:55:36.052Z,1004.3
2019-06-11T14:56:41.236Z,1004.3
2019-06-11T14:57:43.459Z,1004.3
2019-06-11T14:58:45.773Z,1004.3
2019-06-11T14:59:50.289Z,1004.3
2019-06-11T15:00:52.852Z,1004.3
2019-06-11T15:01:56.925Z,1004.2
2019-06-11T15:03:06.774Z,1004.3
2019-06-11T15:04:15.840Z,1004.3
2019-06-11T15:05:18.077Z,1004.3
2019-06-11T15:06:23.915Z,1004.3
2019-06-11T15:07:26.183Z,1004.2
2019-06-11T15:08:28.450Z,1004.3
2019-06-11T15:09:31.567Z,1004.2
2019-06-11T15:10:33.869Z,1004.3
2019-06-11T15:11:36.109Z,1004.2
2019-06-11T15:12:41.006Z,1004.3
2019-06-11T15:13:43.729Z,1004.3
2019-06-11T15:15:01.581Z,1004.3
2019-06-11T15:16:26.134Z,1004.2
2019-06-11T15:17:37.242Z,1004.3
2019-06-11T15:18:44.553Z,1004.2
2019-06-11T15:20:15.492Z,1004.3
2019-06-11T15:21:32.514Z,1004.3
2019-06-11T15:22:34.677Z,1004.3
2019-06-11T15:23:37.396Z,1004.3
2019-06-11T15:24:43.650Z,1004.3
2019-06-11T15:25:45.983Z,1004.3
2019-06-11T15:26:51.577Z,1004.3
2019-06-11T15:27:54.000Z,1004.2
2019-06-11T15:28:56.232Z,1004.3
2019-06-11T15:30:14.058Z,1004.2
2019-06-11T15:31:37.524Z,1004.2
2019-06-11T15:32:45.776Z,1004.2
2019-06-11T15:33:52.159Z,1004.2
2019-06-11T15:34:54.402Z,1004.3
2019-06-11T15:35:56.959Z,1004.3
2019-06-11T15:37:03.122Z,1004.3
2019-06-11T15:38:18.199Z,1004.3
2019-06-11T15:39:24.451Z,1004.4
2019-06-11T15:40:27.711Z,1004.3
2019-06-11T15:41:32.424Z,1004.3
2019-06-11T15:42:34.677Z,1004.3
2019-06-11T15:43:37.034Z,1004.2
2019-06-11T15:44:39.541Z,1004.2
2019-06-11T15:45:45.047Z,1004.3
2019-06-11T15:46:48.297Z,1004.3
2019-06-11T15:47:53.493Z,1004.3
2019-06-11T15:48:55.731Z,1004.3
2019-06-11T15:49:57.964Z,1004.3
2019-06-11T15:51:02.156Z,1004.3
2019-06-11T15:52:07.806Z,1004.3
2019-06-11T15:53:14.713Z,1004.3
2019-06-11T15:54:21.636Z,1004.3
2019-06-11T15:55:25.608Z,1004.3
2019-06-11T15:56:44.350Z,1004.3
2019-06-11T15:57:47.421Z,1004.3
2019-06-11T15:58:51.036Z,1004.3
2019-06-11T15:59:53.567Z,1004.3
2019-06-11T16:00:55.849Z,1004.3
2019-06-11T16:01:58.468Z,1004.3
2019-06-11T16:03:23.241Z,1004.4
2019-06-11T16:04:25.761Z,1004.4
2019-06-11T16:05:30.856Z,1004.4
2019-06-11T16:06:37.576Z,1004.4
2019-06-11T16:07:43.055Z,1004.4
2019-06-11T16:08:45.268Z,1004.4
2019-06-11T16:09:50.598Z,1004.4
2019-06-11T16:10:53.851Z,1004.5
2019-06-11T16:11:56.222Z,1004.5
2019-06-11T16:13:03.168Z,1004.5
2019-06-11T16:14:15.478Z,1004.5
2019-06-11T16:15:44.182Z,1004.4
2019-06-11T16:16:53.465Z,1004.4
2019-06-11T16:17:57.113Z,1004.5
2019-06-11T16:19:03.549Z,1004.5
2019-06-11T16:20:18.421Z,1004.5
2019-06-11T16:21:25.983Z,1004.5
2019-06-11T16:22:30.852Z,1004.6
2019-06-11T16:23:33.258Z,1004.5
2019-06-11T16:24:35.632Z,1004.5
2019-06-11T16:25:40.923Z,1004.5
2019-06-11T16:26:43.183Z,1004.5
2019-06-11T16:27:45.391Z,1004.5
2019-06-11T16:28:51.241Z,1004.5
2019-06-11T16:29:54.679Z,1004.5
2019-06-11T16:30:58.025Z,1004.5
2019-06-11T16:32:04.984Z,1004.5
2019-06-11T16:33:21.418Z,1004.5
2019-06-11T16:34:25.159Z,1004.5
2019-06-11T16:35:27.445Z,1004.5
2019-06-11T16:36:32.670Z,1004.5
2019-06-11T16:37:35.165Z,1004.5
2019-06-11T16:38:40.368Z,1004.4
2019-06-11T16:39:42.887Z,1004.4
2019-06-11T16:40:45.637Z,1004.5
2019-06-11T16:41:48.034Z,1004.5
2019-06-11T16:42:54.508Z,1004.4
2019-06-11T16:43:57.051Z,1004.4
2019-06-11T16:45:02.452Z,1004.5
2019-06-11T16:46:21.220Z,1004.5
2019-06-11T16:47:33.093Z,1004.5
2019-06-11T16:48:35.369Z,1004.5
2019-06-11T16:49:41.458Z,1004.5
2019-06-11T16:50:43.845Z,1004.5
2019-06-11T16:51:47.040Z,1004.6
2019-06-11T16:52:53.488Z,1004.6
2019-06-11T16:53:55.879Z,1004.6
2019-06-11T16:55:02.527Z,1004.7
2019-06-11T16:56:05.084Z,1004.6
2019-06-11T16:57:13.683Z,1004.6
2019-06-11T16:58:22.615Z,1004.6
2019-06-11T16:59:25.073Z,1004.6
2019-06-11T17:00:33.042Z,1004.6
2019-06-11T17:01:35.972Z,1004.6
2019-06-11T17:02:41.295Z,1004.6
2019-06-11T17:03:43.712Z,1004.7
2019-06-11T17:04:45.962Z,1004.6
2019-06-11T17:05:51.164Z,1004.7
2019-06-11T17:06:53.727Z,1004.6
2019-06-11T17:07:58.153Z,1004.6
2019-06-11T17:09:04.204Z,1004.6
2019-06-11T17:10:06.384Z,1004.6
2019-06-11T17:11:17.308Z,1004.6
2019-06-11T17:12:25.776Z,1004.6
2019-06-11T17:13:33.568Z,1004.6
2019-06-11T17:14:35.829Z,1004.6
2019-06-11T17:15:43.432Z,1004.7
2019-06-11T17:16:46.887Z,1004.6
2019-06-11T17:17:57.179Z,1004.6
2019-06-11T17:19:03.046Z,1004.6
2019-06-11T17:20:05.617Z,1004.7
2019-06-11T17:21:10.839Z,1004.7
2019-06-11T17:22:30.748Z,1004.7
2019-06-11T17:23:32.946Z,1004.7
2019-06-11T17:24:35.170Z,1004.7
2019-06-11T17:25:40.289Z,1004.7
2019-06-11T17:26:42.712Z,1004.7
2019-06-11T17:27:55.130Z,1004.7
2019-06-11T17:29:00.051Z,1004.7
2019-06-11T17:30:02.361Z,1004.7
2019-06-11T17:31:04.571Z,1004.7
2019-06-11T17:32:07.060Z,1004.7
2019-06-11T17:33:13.560Z,1004.7
2019-06-11T17:34:19.734Z,1004.7
2019-06-11T17:35:23.367Z,1004.7
2019-06-11T17:36:31.084Z,1004.7
2019-06-11T17:37:33.823Z,1004.7
2019-06-11T17:38:36.446Z,1004.7
2019-06-11T17:39:41.775Z,1004.6
2019-06-11T17:40:44.453Z,1004.6
2019-06-11T17:41:46.634Z,1004.6
2019-06-11T17:42:50.592Z,1004.6
2019-06-11T17:43:53.062Z,1004.6
2019-06-11T17:44:55.283Z,1004.6
2019-06-11T17:45:57.539Z,1004.7
2019-06-11T17:47:01.573Z,1004.7
2019-06-11T17:48:03.859Z,1004.8
2019-06-11T17:49:06.043Z,1004.8
2019-06-11T17:50:11.283Z,1004.8
2019-06-11T17:51:14.315Z,1004.7
2019-06-11T17:52:23.327Z,1004.8
2019-06-11T17:53:31.714Z,1004.7
2019-06-11T17:54:34.197Z,1004.8
2019-06-11T17:55:36.441Z,1004.8
2019-06-11T17:56:43.201Z,1004.8
2019-06-11T17:57:46.124Z,1004.8
2019-06-11T17:58:50.497Z,1004.9
2019-06-11T17:59:52.711Z,1004.9
2019-06-11T18:00:55.291Z,1004.8
2019-06-11T18:01:57.487Z,1004.9
2019-06-11T18:03:03.101Z,1004.9
2019-06-11T18:04:05.691Z,1004.9
2019-06-11T18:05:10.641Z,1004.9
2019-06-11T18:06:13.064Z,1005
2019-06-11T18:07:17.614Z,1005
2019-06-11T18:08:36.245Z,1005
2019-06-11T18:09:41.347Z,1005
2019-06-11T18:10:43.940Z,1005
2019-06-11T18:11:46.168Z,1005
2019-06-11T18:12:50.948Z,1004.9
2019-06-11T18:13:53.134Z,1004.9
2019-06-11T18:14:55.702Z,1004.9
2019-06-11T18:16:01.803Z,1004.8
2019-06-11T18:17:04.060Z,1004.9
2019-06-11T18:18:06.327Z,1004.9
2019-06-11T18:19:10.425Z,1004.9
2019-06-11T18:20:12.697Z,1005
2019-06-11T18:21:16.709Z,1005
2019-06-11T18:22:24.805Z,1005
2019-06-11T18:23:30.572Z,1005
2019-06-11T18:24:34.292Z,1005
2019-06-11T18:25:36.586Z,1005
2019-06-11T18:26:41.976Z,1005
2019-06-11T18:27:50.262Z,1005
2019-06-11T18:28:52.889Z,1005.1
2019-06-11T18:29:55.082Z,1005.1
2019-06-11T18:30:57.266Z,1005.2
2019-06-11T18:32:02.853Z,1005.2
2019-06-11T18:33:05.389Z,1005.1
2019-06-11T18:34:10.732Z,1005.1
2019-06-11T18:35:13.013Z,1005
2019-06-11T18:36:15.216Z,1005
2019-06-11T18:37:23.595Z,1005
2019-06-11T18:38:38.083Z,1005
2019-06-11T18:39:43.776Z,1005
2019-06-11T18:40:46.261Z,1005
2019-06-11T18:41:50.780Z,1005
2019-06-11T18:42:53.053Z,1005.1
2019-06-11T18:43:55.518Z,1005.1
2019-06-11T18:44:57.784Z,1005.1
2019-06-11T18:46:00.256Z,1005.2
2019-06-11T18:47:11.026Z,1005.1
2019-06-11T18:48:13.664Z,1005.1
2019-06-11T18:49:15.830Z,1005.1
2019-06-11T18:50:24.801Z,1005.1
2019-06-11T18:51:34.164Z,1005.1
2019-06-11T18:52:37.256Z,1005
2019-06-11T18:53:42.965Z,1005
2019-06-11T18:54:45.567Z,1005
2019-06-11T18:55:50.606Z,1005
2019-06-11T18:56:52.821Z,1005
2019-06-11T18:57:55.105Z,1005
2019-06-11T18:58:57.563Z,1005
2019-06-11T19:00:02.272Z,1005
2019-06-11T19:01:04.477Z,1005
2019-06-11T19:02:07.018Z,1005
2019-06-11T19:03:11.831Z,1005
2019-06-11T19:04:14.771Z,1005
2019-06-11T19:05:17.037Z,1005
2019-06-11T19:06:24.338Z,1005.1
2019-06-11T19:07:33.749Z,1005.1
2019-06-11T19:08:35.968Z,1005
2019-06-11T19:09:40.721Z,1005
2019-06-11T19:10:43.200Z,1005
2019-06-11T19:11:45.716Z,1005.1
2019-06-11T19:12:47.977Z,1005
2019-06-11T19:13:53.249Z,1005.1
2019-06-11T19:14:55.605Z,1005.1
2019-06-11T19:16:00.488Z,1005.1
2019-06-11T19:17:02.689Z,1005.1
2019-06-11T19:18:04.924Z,1005
2019-06-11T19:19:07.099Z,1005
2019-06-11T19:20:14.982Z,1004.9
2019-06-11T19:21:17.337Z,1004.9
2019-06-11T19:22:31.665Z,1004.9
2019-06-11T19:23:35.401Z,1004.9
2019-06-11T19:24:37.938Z,1004.9
2019-06-11T19:25:46.291Z,1004.9
2019-06-11T19:26:52.128Z,1004.9
2019-06-11T19:28:11.727Z,1004.9
2019-06-11T19:29:16.961Z,1005
2019-06-11T19:30:24.102Z,1004.9
2019-06-11T19:31:36.532Z,1004.9
2019-06-11T19:32:44.263Z,1005
2019-06-11T19:33:47.183Z,1005
2019-06-11T19:34:51.323Z,1004.9
2019-06-11T19:35:53.507Z,1004.9
2019-06-11T19:36:55.770Z,1004.9
2019-06-11T19:37:57.953Z,1004.9
2019-06-11T19:39:03.092Z,1004.9
2019-06-11T19:40:05.352Z,1004.9
2019-06-11T19:41:07.817Z,1004.9
2019-06-11T19:42:10.985Z,1005
2019-06-11T19:43:13.177Z,1004.9
2019-06-11T19:44:15.366Z,1005
2019-06-11T19:45:17.572Z,1004.9
2019-06-11T19:46:23.930Z,1005
2019-06-11T19:47:59.059Z,1005
2019-06-11T19:49:04.935Z,1005.1
2019-06-11T19:50:07.125Z,1005
2019-06-11T19:51:11.983Z,1005.1
2019-06-11T19:52:14.183Z,1005.2
2019-06-11T19:53:16.605Z,1005.1
2019-06-11T19:54:21.499Z,1005.2
2019-06-11T19:55:24.998Z,1005.3
2019-06-11T19:56:36.405Z,1005.2
2019-06-11T19:57:44.089Z,1005.3
2019-06-11T19:58:46.327Z,1005.3
2019-06-11T19:59:51.283Z,1005.2
2019-06-11T20:00:53.472Z,1005.3
2019-06-11T20:01:55.637Z,1005.2
2019-06-11T20:03:00.994Z,1005.2
2019-06-11T20:04:03.607Z,1005.2
2019-06-11T20:05:05.847Z,1005.2
2019-06-11T20:06:11.380Z,1005.1
2019-06-11T20:07:14.009Z,1005.1
2019-06-11T20:08:16.185Z,1005.1
2019-06-11T20:09:20.570Z,1005
2019-06-11T20:10:22.759Z,1005
2019-06-11T20:11:29.289Z,1005
2019-06-11T20:12:43.085Z,1005.1
2019-06-11T20:13:45.275Z,1005
2019-06-11T20:14:47.525Z,1005.1
2019-06-11T20:15:52.680Z,1005
2019-06-11T20:16:54.939Z,1004.9
2019-06-11T20:18:04.943Z,1004.8
2019-06-11T20:19:07.661Z,1004.8
2019-06-11T20:20:12.674Z,1004.8
2019-06-11T20:21:14.864Z,1004.8
2019-06-11T20:22:17.097Z,1004.7
2019-06-11T20:23:22.198Z,1004.7
2019-06-11T20:24:24.725Z,1004.6
2019-06-11T20:25:35.961Z,1004.5
2019-06-11T20:26:44.233Z,1004.4
2019-06-11T20:27:46.429Z,1004.4
2019-06-11T20:28:51.086Z,1004.3
2019-06-11T20:29:53.348Z,1004.3
2019-06-11T20:30:56.206Z,1004.3
2019-06-11T20:32:01.998Z,1004.3
2019-06-11T20:33:06.015Z,1004.2
2019-06-11T20:34:08.257Z,1004.2
2019-06-11T20:35:13.248Z,1004.1
2019-06-11T20:36:15.418Z,1004.1
2019-06-11T20:37:20.113Z,1004.1
2019-06-11T20:38:22.408Z,1004
2019-06-11T20:39:24.645Z,1003.9
2019-06-11T20:40:26.844Z,1003.9
2019-06-11T20:41:42.907Z,1003.9
2019-06-11T20:42:45.759Z,1003.9
2019-06-11T20:43:50.526Z,1003.9
2019-06-11T20:44:52.717Z,1004
2019-06-11T20:45:54.898Z,1004.1
2019-06-11T20:46:57.155Z,1004.1
2019-06-11T20:48:25.930Z,1004.1
2019-06-11T20:49:36.458Z,1004.1
2019-06-11T20:50:44.970Z,1004.2
2019-06-11T20:51:47.241Z,1004.3
2019-06-11T20:52:52.527Z,1004.3
2019-06-11T20:53:54.763Z,1004.3
2019-06-11T20:54:57.344Z,1004.2
2019-06-11T20:56:00.607Z,1004.2
2019-06-11T20:57:07.050Z,1004.2
2019-06-11T20:58:10.604Z,1004.2
2019-06-11T20:59:12.800Z,1004.2
2019-06-11T21:00:14.975Z,1004.2
2019-06-11T21:01:17.158Z,1004.1
2019-06-11T21:02:22.466Z,1004
2019-06-11T21:03:24.642Z,1004.1
2019-06-11T21:04:26.906Z,1004
2019-06-11T21:05:34.989Z,1004.1
2019-06-11T21:06:43.840Z,1004.1
2019-06-11T21:07:46.788Z,1004.2
2019-06-11T21:08:50.616Z,1004.2
2019-06-11T21:09:53.048Z,1004.2
2019-06-11T21:10:55.500Z,1004.2
2019-06-11T21:12:00.845Z,1004.3
2019-06-11T21:13:03.029Z,1004.4
2019-06-11T21:14:05.942Z,1004.4
2019-06-11T21:15:10.369Z,1004.5
2019-06-11T21:16:13.247Z,1004.5
2019-06-11T21:17:15.746Z,1004.6
2019-06-11T21:18:37.535Z,1004.6
2019-06-11T21:19:54.501Z,1004.6
2019-06-11T21:20:57.062Z,1004.6
2019-06-11T21:22:00.987Z,1004.6
2019-06-11T21:23:03.178Z,1004.6
2019-06-11T21:24:05.419Z,1004.6
2019-06-11T21:25:07.625Z,1004.6
2019-06-11T21:26:12.432Z,1004.5
2019-06-11T21:27:15.226Z,1004.6
2019-06-11T21:28:17.428Z,1004.6
2019-06-11T21:29:20.514Z,1004.5
2019-06-11T21:30:22.688Z,1004.6
2019-06-11T21:31:25.234Z,1004.5
2019-06-11T21:32:27.408Z,1004.5
2019-06-11T21:33:29.893Z,1004.5
2019-06-11T21:34:32.100Z,1004.5
2019-06-11T21:35:34.958Z,1004.5
2019-06-11T21:36:42.985Z,1004.4
2019-06-11T21:37:52.272Z,1004.4
2019-06-11T21:38:54.497Z,1004.4
2019-06-11T21:39:56.711Z,1004.4
2019-06-11T21:41:01.234Z,1004.5
2019-06-11T21:42:03.834Z,1004.5
2019-06-11T21:43:06.112Z,1004.5
2019-06-11T21:44:08.357Z,1004.5
2019-06-11T21:45:11.406Z,1004.5
2019-06-11T21:46:13.647Z,1004.5
2019-06-11T21:47:16.225Z,1004.5
2019-06-11T21:48:21.134Z,1004.6
2019-06-11T21:49:23.370Z,1004.6
2019-06-11T21:50:25.570Z,1004.5
2019-06-11T21:51:30.746Z,1004.5
2019-06-11T21:52:32.952Z,1004.5
2019-06-11T21:53:35.687Z,1004.5
2019-06-11T21:54:43.859Z,1004.5
2019-06-11T21:55:50.571Z,1004.5
2019-06-11T21:56:53.047Z,1004.5
2019-06-11T21:57:55.239Z,1004.5
2019-06-11T21:58:57.465Z,1004.6
2019-06-11T22:00:01.351Z,1004.5
2019-06-11T22:01:04.311Z,1004.6
2019-06-11T22:02:06.486Z,1004.6
2019-06-11T22:03:11.126Z,1004.7
2019-06-11T22:04:13.328Z,1004.7
2019-06-11T22:05:15.512Z,1004.7
2019-06-11T22:06:20.382Z,1004.7
2019-06-11T22:07:22.580Z,1004.7
2019-06-11T22:08:24.797Z,1004.7
2019-06-11T22:09:27.406Z,1004.7
2019-06-11T22:10:36.696Z,1004.7
2019-06-11T22:11:51.738Z,1004.7
2019-06-11T22:12:53.968Z,1004.6
2019-06-11T22:13:56.201Z,1004.5
2019-06-11T22:15:01.191Z,1004.4
2019-06-11T22:16:04.214Z,1004.3
2019-06-11T22:17:07.109Z,1004.3
2019-06-11T22:18:12.114Z,1004.2
2019-06-11T22:19:24.515Z,1004.1
2019-06-11T22:20:31.180Z,1004.1
2019-06-11T22:21:34.283Z,1004.1
2019-06-11T22:22:37.430Z,1004.2
2019-06-11T22:23:48.833Z,1004.3
2019-06-11T22:24:53.711Z,1004.3
2019-06-11T22:25:55.922Z,1004.3
2019-06-11T22:26:58.098Z,1004.4
2019-06-11T22:28:03.423Z,1004.4
2019-06-11T22:29:05.676Z,1004.5
2019-06-11T22:30:07.857Z,1004.5
2019-06-11T22:31:13.099Z,1004.5
2019-06-11T22:32:15.346Z,1004.5
2019-06-11T22:33:20.143Z,1004.4
2019-06-11T22:34:22.520Z,1004.5
2019-06-11T22:35:25.106Z,1004.5
2019-06-11T22:36:27.737Z,1004.5
2019-06-11T22:37:31.483Z,1004.6
2019-06-11T22:38:34.050Z,1004.7
2019-06-11T22:39:36.232Z,1004.7
2019-06-11T22:40:45.813Z,1004.8
2019-06-11T22:41:53.552Z,1004.9
2019-06-11T22:42:55.713Z,1004.9
2019-06-11T22:43:57.950Z,1004.9
2019-06-11T22:45:03.461Z,1005
2019-06-11T22:46:05.722Z,1005
2019-06-11T22:47:08.853Z,1005.3
2019-06-11T22:48:13.345Z,1005.7
2019-06-11T22:49:36.172Z,1006
2019-06-11T22:50:44.928Z,1006.3
2019-06-11T22:52:02.483Z,1006.3
2019-06-11T22:53:05.460Z,1006.4
2019-06-11T22:54:07.683Z,1006.3
2019-06-11T22:55:12.470Z,1006.3
2019-06-11T22:56:14.733Z,1006.3
2019-06-11T22:57:16.926Z,1006.3
2019-06-11T22:58:21.178Z,1006.1
2019-06-11T22:59:23.672Z,1006
2019-06-11T23:00:25.838Z,1006
2019-06-11T23:01:30.533Z,1006
2019-06-11T23:02:32.700Z,1006.3
2019-06-11T23:03:34.947Z,1006.5
2019-06-11T23:04:37.135Z,1006.5
2019-06-11T23:05:44.665Z,1006.5
2019-06-11T23:06:52.463Z,1006.4
2019-06-11T23:07:55.199Z,1006.3
2019-06-11T23:08:57.464Z,1006.3
2019-06-11T23:10:02.300Z,1006.2